Nowshera Weather



Nowshera's Current Weather

Temprature 40.38o clear sky

clear sky

Rain: 0 %

Min Temprature40.38o
Max Temprature40.38o
Humidity19
Wind Speed0.74 m/h
Sun Rise05:17:31
Sun Set19:19:11
Current Time: 24-Jul-2021 15:48:02
Lat/Lon: 34.0058, 71.9977




Nowshera's Geo Location



Nowshera's Weather Forecast

Time Overall Temp Min Temp Max Temp Humidity Wind Speed Rain
24-Jul-2021 (Sat)
17:00:00 clear sky 40.380 40.380 42.320 19 0.47 m/h 0 %
20:00:00 clear sky 40.230 39.940 40.230 21 2.33 m/h 0 %
23:00:00 clear sky 39.080 38.430 39.080 24 1.77 m/h 0 %
25-Jul-2021 (Sun)
02:00:00 clear sky 36.070 36.070 36.070 32 2.96 m/h 0 %
05:00:00 clear sky 34.020 34.020 34.020 37 2.52 m/h 0 %
08:00:00 overcast clouds 36.260 36.260 36.260 34 2.57 m/h 0 %
11:00:00 overcast clouds 40.260 40.260 40.260 25 1.65 m/h 0 %
14:00:00 broken clouds 42.840 42.840 42.840 20 0.36 m/h 0 %
17:00:00 scattered clouds 43.790 43.790 43.790 18 0.43 m/h 0 %
20:00:00 clear sky 41.170 41.170 41.170 23 2.74 m/h 0 %
23:00:00 clear sky 39.670 39.670 39.670 25 2.94 m/h 0 %
26-Jul-2021 (Mon)
02:00:00 scattered clouds 35.850 35.850 35.850 45 7.05 m/h 0 %
05:00:00 broken clouds 34.460 34.460 34.460 54 4.8 m/h 0 %
08:00:00 broken clouds 35.970 35.970 35.970 49 4.21 m/h 0 %
11:00:00 scattered clouds 39.480 39.480 39.480 38 3.75 m/h 0 %
14:00:00 clear sky 42.460 42.460 42.460 29 2.74 m/h 0 %
17:00:00 clear sky 43.570 43.570 43.570 25 2.88 m/h 0 %
20:00:00 clear sky 41.110 41.110 41.110 30 3.68 m/h 0 %
23:00:00 few clouds 36.290 36.290 36.290 48 7.83 m/h 0 %
27-Jul-2021 (Tue)
02:00:00 overcast clouds 34.560 34.560 34.560 56 6.57 m/h 0 %
05:00:00 broken clouds 32.950 32.950 32.950 63 4.63 m/h 0 %
08:00:00 clear sky 34.300 34.300 34.300 57 3.61 m/h 0 %
11:00:00 few clouds 38.120 38.120 38.120 45 5.01 m/h 0 %
14:00:00 broken clouds 41.560 41.560 41.560 34 5.96 m/h 0 %
17:00:00 broken clouds 41.860 41.860 41.860 32 5.78 m/h 0 %
20:00:00 light rain 35.570 35.570 35.570 51 10.01 m/h 19 %
23:00:00 light rain 32.060 32.060 32.060 63 9.76 m/h 29 %
28-Jul-2021 (Wed)
02:00:00 light rain 30.540 30.540 30.540 69 6.13 m/h 121 %
05:00:00 light rain 29.450 29.450 29.450 73 6.31 m/h 58 %
08:00:00 overcast clouds 29.670 29.670 29.670 71 5.73 m/h 0 %
11:00:00 light rain 30.310 30.310 30.310 68 5.56 m/h 94 %
14:00:00 light rain 29.490 29.490 29.490 73 7.3 m/h 92 %
17:00:00 light rain 29.850 29.850 29.850 71 6.93 m/h 19 %
20:00:00 light rain 27.550 27.550 27.550 80 6.28 m/h 172 %
23:00:00 light rain 27.200 27.200 27.200 80 2.77 m/h 285 %
29-Jul-2021 (Thu)
02:00:00 moderate rain 26.810 26.810 26.810 83 2.99 m/h 314 %
05:00:00 moderate rain 26.380 26.380 26.380 87 2.54 m/h 542 %
08:00:00 light rain 27.040 27.040 27.040 83 2.47 m/h 147 %
11:00:00 light rain 28.710 28.710 28.710 75 0.54 m/h 101 %
14:00:00 light rain 33.170 33.170 33.170 57 1.19 m/h 18 %

Famous Cities (60)